createdAt,value
2023-11-14T00:02:25.753Z,27.17
2023-11-14T00:04:56.238Z,29.77
2023-11-14T00:07:26.750Z,26.08
2023-11-14T00:09:57.136Z,32.15
2023-11-14T00:12:27.550Z,29.10
2023-11-14T00:15:01.498Z,28.88
2023-11-14T00:17:32.935Z,29.70
2023-11-14T00:20:07.176Z,38.45
2023-11-14T00:22:39.354Z,29.33
2023-11-14T00:25:10.384Z,25.67
2023-11-14T00:27:41.136Z,29.75
2023-11-14T00:30:17.147Z,26.27
2023-11-14T00:32:47.537Z,29.75
2023-11-14T00:35:18.310Z,28.73
2023-11-14T00:37:50.102Z,33.40
2023-11-14T00:40:21.056Z,28.63
2023-11-14T00:42:51.590Z,38.55
2023-11-14T00:45:28.389Z,32.45
2023-11-14T00:47:59.629Z,30.67
2023-11-14T00:50:30.484Z,31.67
2023-11-14T00:53:01.006Z,24.75
2023-11-14T00:55:31.346Z,35.72
2023-11-14T00:58:01.721Z,31.38
2023-11-14T01:00:34.670Z,32.78
2023-11-14T01:03:05.912Z,33.45
2023-11-14T01:05:36.470Z,27.70
2023-11-14T01:08:07.086Z,31.63
2023-11-14T01:10:37.549Z,33.60
2023-11-14T01:13:07.962Z,26.77
2023-11-14T01:15:41.240Z,33.50
2023-11-14T01:18:11.669Z,28.95
2023-11-14T01:20:42.102Z,33.53
2023-11-14T01:23:12.574Z,31.63
2023-11-14T01:25:43.166Z,29.70
2023-11-14T01:28:13.678Z,31.98
2023-11-14T01:30:46.942Z,31.25
2023-11-14T01:33:17.259Z,31.23
2023-11-14T01:35:47.612Z,28.98
2023-11-14T01:38:18.089Z,34.72
2023-11-14T01:40:52.943Z,33.78
2023-11-14T01:43:23.204Z,26.98
2023-11-14T01:45:56.223Z,33.28
2023-11-14T01:48:26.525Z,26.38
2023-11-14T01:50:56.829Z,30.95
2023-11-14T01:53:27.907Z,29.48
2023-11-14T01:55:58.552Z,35.42
2023-11-14T01:58:29.217Z,27.20
2023-11-14T02:01:02.559Z,28.98
2023-11-14T02:03:33.326Z,25.45
2023-11-14T02:06:04.702Z,33.88
2023-11-14T02:08:36.425Z,26.27
2023-11-14T02:11:07.393Z,36.72
2023-11-14T02:13:38.244Z,33.35
2023-11-14T02:16:11.472Z,31.88
2023-11-14T02:18:41.907Z,36.78
2023-11-14T02:21:15.276Z,35.45
2023-11-14T02:23:49.165Z,26.70
2023-11-14T02:26:22.641Z,29.45
2023-11-14T02:29:00.492Z,41.80
2023-11-14T02:31:32.333Z,32.00
2023-11-14T02:34:02.740Z,35.72
2023-11-14T02:36:36.050Z,34.30
2023-11-14T02:39:06.562Z,33.42
2023-11-14T02:41:41.200Z,31.27
2023-11-14T02:44:11.469Z,40.10
2023-11-14T02:46:41.820Z,37.17
2023-11-14T02:49:35.965Z,34.60
2023-11-14T02:52:06.838Z,31.58
2023-11-14T02:54:37.111Z,30.23
2023-11-14T02:57:13.586Z,34.22
2023-11-14T02:59:43.908Z,29.58
2023-11-14T03:02:14.219Z,25.42
2023-11-14T03:04:44.649Z,32.70
2023-11-14T03:07:15.744Z,32.70
2023-11-14T03:09:46.995Z,31.70
2023-11-14T03:12:20.801Z,30.52
2023-11-14T03:14:51.206Z,33.65
2023-11-14T03:17:21.676Z,33.67
2023-11-14T03:19:52.001Z,26.88
2023-11-14T03:22:23.249Z,25.73
2023-11-14T03:24:53.587Z,30.00
2023-11-14T03:27:26.651Z,38.72
2023-11-14T03:29:56.920Z,36.03
2023-11-14T03:32:27.380Z,26.65
2023-11-14T03:34:57.889Z,24.88
2023-11-14T03:37:28.421Z,36.63
2023-11-14T03:39:58.851Z,34.60
2023-11-14T03:42:29.294Z,36.03
2023-11-14T03:44:59.608Z,34.33
2023-11-14T03:47:30.062Z,34.97
2023-11-14T03:50:00.362Z,25.95
2023-11-14T03:52:30.801Z,30.48
2023-11-14T03:55:01.129Z,31.73
2023-11-14T03:57:34.076Z,37.20
2023-11-14T04:00:06.251Z,27.38
2023-11-14T04:02:44.950Z,33.35
2023-11-14T04:05:15.499Z,44.45
2023-11-14T04:07:46.510Z,38.65
2023-11-14T04:10:17.766Z,41.88
2023-11-14T04:12:51.620Z,30.17
2023-11-14T04:15:22.250Z,35.83
2023-11-14T04:17:53.320Z,32.90
2023-11-14T04:20:23.809Z,29.90
2023-11-14T04:22:54.389Z,35.15
2023-11-14T04:25:24.756Z,28.42
2023-11-14T04:27:57.713Z,27.30
2023-11-14T04:30:28.256Z,41.45
2023-11-14T04:32:58.767Z,27.77
2023-11-14T04:35:29.294Z,29.02
2023-11-14T04:37:59.845Z,36.47
2023-11-14T04:40:30.532Z,32.45
2023-11-14T04:43:03.677Z,31.27
2023-11-14T04:45:33.963Z,37.85
2023-11-14T04:48:04.275Z,26.52
2023-11-14T04:50:34.927Z,41.50
2023-11-14T04:53:05.420Z,36.50
2023-11-14T04:55:37.348Z,28.90
2023-11-14T04:58:11.436Z,36.50
2023-11-14T05:00:41.762Z,34.20
2023-11-14T05:03:12.106Z,25.98
2023-11-14T05:05:42.540Z,28.33
2023-11-14T05:08:12.902Z,27.15
2023-11-14T05:10:43.223Z,39.10
2023-11-14T05:13:17.256Z,32.90
2023-11-14T05:15:47.552Z,37.70
2023-11-14T05:18:17.979Z,37.28
2023-11-14T05:20:48.388Z,32.33
2023-11-14T05:23:18.981Z,35.03
2023-11-14T05:25:49.272Z,45.30
2023-11-14T05:28:22.181Z,35.65
2023-11-14T05:30:52.862Z,30.92
2023-11-14T05:33:23.373Z,36.60
2023-11-14T05:35:53.668Z,29.15
2023-11-14T05:38:24.072Z,33.53
2023-11-14T05:40:54.592Z,31.15
2023-11-14T05:43:29.708Z,28.02
2023-11-14T05:46:02.267Z,39.80
2023-11-14T05:48:32.620Z,38.88
2023-11-14T05:51:02.905Z,44.70
2023-11-14T05:53:33.331Z,42.67
2023-11-14T05:56:03.948Z,30.23
2023-11-14T05:58:37.412Z,31.50
2023-11-14T06:01:08.123Z,35.92
2023-11-14T06:03:38.522Z,35.85
2023-11-14T06:06:09.211Z,43.40
2023-11-14T06:08:39.545Z,35.00
2023-11-14T06:11:11.755Z,39.10
2023-11-14T06:13:47.303Z,34.75
2023-11-14T06:16:19.243Z,27.92
2023-11-14T06:18:49.692Z,42.65
2023-11-14T06:21:20.208Z,39.05
2023-11-14T06:23:50.635Z,26.70
2023-11-14T06:26:23.115Z,32.55
2023-11-14T06:29:00.350Z,39.08
2023-11-14T06:31:30.958Z,33.10
2023-11-14T06:34:01.275Z,35.58
2023-11-14T06:36:31.603Z,31.45
2023-11-14T06:39:02.096Z,33.08
2023-11-14T06:41:32.465Z,37.92
2023-11-14T06:44:05.753Z,40.55
2023-11-14T06:46:36.200Z,35.78
2023-11-14T06:49:06.595Z,32.92
2023-11-14T06:51:37.060Z,40.78
2023-11-14T06:54:08.767Z,40.15
2023-11-14T06:56:39.214Z,31.63
2023-11-14T06:59:12.331Z,31.90
2023-11-14T07:01:43.348Z,40.30
2023-11-14T07:04:14.113Z,37.03
2023-11-14T07:06:44.414Z,38.60
2023-11-14T07:09:16.916Z,25.90
2023-11-14T07:11:48.824Z,36.25
2023-11-14T07:14:24.204Z,33.75
2023-11-14T07:16:54.930Z,30.25
2023-11-14T07:19:25.462Z,35.10
2023-11-14T07:21:56.712Z,37.22
2023-11-14T07:24:27.258Z,37.20
2023-11-14T07:26:57.595Z,37.67
2023-11-14T07:29:31.393Z,32.88
2023-11-14T07:32:01.752Z,36.53
2023-11-14T07:34:32.125Z,33.75
2023-11-14T07:37:03.479Z,37.30
2023-11-14T07:39:33.964Z,33.55
2023-11-14T07:42:04.784Z,32.95
2023-11-14T07:44:37.750Z,35.97
2023-11-14T07:47:16.144Z,35.03
2023-11-14T07:49:51.791Z,34.88
2023-11-14T07:52:22.332Z,30.60
2023-11-14T07:54:54.661Z,27.55
2023-11-14T07:57:25.065Z,33.83
2023-11-14T07:59:57.983Z,28.45
2023-11-14T08:02:28.549Z,27.08
2023-11-14T08:04:59.178Z,28.42
2023-11-14T08:07:29.563Z,30.25
2023-11-14T08:09:59.866Z,26.02
2023-11-14T08:12:30.291Z,31.60
2023-11-14T08:15:03.202Z,26.42
2023-11-14T08:17:34.660Z,28.27
2023-11-14T08:20:05.267Z,27.05
2023-11-14T08:22:36.760Z,26.80
2023-11-14T08:25:07.620Z,25.75
2023-11-14T08:27:37.899Z,22.23
2023-11-14T08:30:14.407Z,23.40
2023-11-14T08:32:45.705Z,29.45
2023-11-14T08:35:16.537Z,23.58
2023-11-14T08:37:47.213Z,22.73
2023-11-14T08:40:17.624Z,24.80
2023-11-14T08:42:50.497Z,22.35
2023-11-14T08:45:25.282Z,19.83
2023-11-14T08:47:55.663Z,24.70
2023-11-14T08:50:26.121Z,23.27
2023-11-14T08:52:56.682Z,19.27
2023-11-14T08:55:27.067Z,23.70
2023-11-14T08:57:57.535Z,25.58
2023-11-14T09:00:31.652Z,24.83
2023-11-14T09:03:02.587Z,24.65
2023-11-14T09:05:33.603Z,27.98
2023-11-14T09:08:05.099Z,20.98
2023-11-14T09:10:35.824Z,29.98
2023-11-14T09:13:06.139Z,23.27
2023-11-14T09:15:39.051Z,20.80
2023-11-14T09:18:09.730Z,22.27
2023-11-14T09:20:40.171Z,22.40
2023-11-14T09:23:10.539Z,16.52
2023-11-14T09:25:41.473Z,17.02
2023-11-14T09:28:11.929Z,16.52
2023-11-14T09:30:45.067Z,20.23
2023-11-14T09:33:16.031Z,17.08
2023-11-14T09:35:47.477Z,24.88
2023-11-14T09:38:17.833Z,18.23
2023-11-14T09:40:48.878Z,27.45
2023-11-14T09:43:22.534Z,17.10
2023-11-14T09:45:58.536Z,25.08
2023-11-14T09:48:29.277Z,20.70
2023-11-14T09:50:59.680Z,30.77
2023-11-14T09:53:30.891Z,20.27
2023-11-14T09:56:01.880Z,16.73
2023-11-14T09:58:32.198Z,25.35
2023-11-14T10:01:05.440Z,24.65
2023-11-14T10:03:35.899Z,25.75
2023-11-14T10:06:06.577Z,25.25
2023-11-14T10:08:45.624Z,24.60
2023-11-14T10:11:22.814Z,24.23
2023-11-14T10:13:53.153Z,29.60
2023-11-14T10:16:26.468Z,23.10
2023-11-14T10:18:56.820Z,24.25
2023-11-14T10:21:34.818Z,26.60
2023-11-14T10:24:14.022Z,29.70
2023-11-14T10:26:53.958Z,24.00
2023-11-14T10:29:26.500Z,18.77
2023-11-14T10:31:59.549Z,22.83
2023-11-14T10:34:31.784Z,15.90
2023-11-14T10:37:03.748Z,27.92
2023-11-14T10:39:34.095Z,21.40
2023-11-14T10:42:11.787Z,23.65
2023-11-14T10:44:42.975Z,23.33
2023-11-14T10:47:16.244Z,22.48
2023-11-14T10:49:49.790Z,21.27
2023-11-14T10:52:22.253Z,22.48
2023-11-14T10:54:53.329Z,19.58
2023-11-14T10:57:26.329Z,25.42
2023-11-14T11:00:00.127Z,30.33
2023-11-14T11:02:36.955Z,19.83
2023-11-14T11:07:41.288Z,19.38
2023-11-14T11:10:13.481Z,19.23
2023-11-14T11:12:45.509Z,14.15
2023-11-14T11:15:16.127Z,17.83
2023-11-14T11:17:50.699Z,15.48
2023-11-14T11:20:30.420Z,19.02
2023-11-14T11:23:10.003Z,19.85
2023-11-14T11:25:42.811Z,17.52
2023-11-14T11:28:31.369Z,19.02
2023-11-14T11:31:25.606Z,12.43
2023-11-14T11:33:58.910Z,15.40
2023-11-14T11:36:36.567Z,14.68
2023-11-14T11:39:10.413Z,16.17
2023-11-14T11:41:59.076Z,16.27
2023-11-14T11:44:42.474Z,14.90
2023-11-14T11:47:36.286Z,10.93
2023-11-14T11:50:36.809Z,11.38
2023-11-14T11:53:14.070Z,12.57
2023-11-14T11:55:46.159Z,14.90
2023-11-14T11:58:16.605Z,11.65
2023-11-14T12:00:47.855Z,16.58
2023-11-14T12:03:18.490Z,11.77
2023-11-14T12:05:50.619Z,17.52
2023-11-14T12:08:23.673Z,12.25
2023-11-14T12:10:54.270Z,21.48
2023-11-14T12:13:24.716Z,27.15
2023-11-14T12:15:55.421Z,24.73
2023-11-14T12:18:25.796Z,18.48
2023-11-14T12:20:56.093Z,8.88
2023-11-14T12:23:30.530Z,15.55
2023-11-14T12:26:01.380Z,14.30
2023-11-14T12:28:31.903Z,11.07
2023-11-14T12:31:08.265Z,10.70
2023-11-14T12:33:49.530Z,13.95
2023-11-14T12:36:26.389Z,16.10
2023-11-14T12:41:31.525Z,7.85
2023-11-14T12:44:08.371Z,8.10
2023-11-14T12:46:41.116Z,10.90
2023-11-14T12:49:17.853Z,8.90
2023-11-14T12:51:50.131Z,6.65
2023-11-14T12:54:24.794Z,9.13
2023-11-14T12:56:56.838Z,9.43
2023-11-14T12:59:28.199Z,12.55
2023-11-14T13:01:58.637Z,10.23
2023-11-14T13:04:29.453Z,14.98
2023-11-14T13:07:00.270Z,5.50
2023-11-14T13:09:34.108Z,7.20
2023-11-14T13:12:05.718Z,7.40
2023-11-14T13:14:38.412Z,10.93
2023-11-14T13:17:10.302Z,8.10
2023-11-14T13:19:43.130Z,7.68
2023-11-14T13:22:19.716Z,10.55
2023-11-14T13:24:55.618Z,5.50
2023-11-14T13:27:26.304Z,9.70
2023-11-14T13:29:57.024Z,12.02
2023-11-14T13:32:29.110Z,8.30
2023-11-14T13:35:06.550Z,9.57
2023-11-14T13:37:37.919Z,10.77
2023-11-14T13:40:14.396Z,10.48
2023-11-14T13:42:45.594Z,6.93
2023-11-14T13:45:15.983Z,12.00
2023-11-14T13:47:46.461Z,12.18
2023-11-14T13:50:17.065Z,7.18
2023-11-14T13:52:48.566Z,7.97
2023-11-14T13:55:22.636Z,8.02
2023-11-14T13:57:53.493Z,9.60
2023-11-14T14:00:28.130Z,12.02
2023-11-14T14:02:58.520Z,10.90
2023-11-14T14:05:28.924Z,12.13
2023-11-14T14:07:59.838Z,7.22
2023-11-14T14:10:34.805Z,9.32
2023-11-14T14:13:05.282Z,8.20
2023-11-14T14:15:36.589Z,9.40
2023-11-14T14:18:07.539Z,11.48
2023-11-14T14:20:38.154Z,8.85
2023-11-14T14:23:09.627Z,12.38
2023-11-14T14:25:43.991Z,13.27
2023-11-14T14:28:15.496Z,10.05
2023-11-14T14:30:46.684Z,10.20
2023-11-14T14:33:17.460Z,12.95
2023-11-14T14:35:47.935Z,9.82
2023-11-14T14:38:18.475Z,10.90
2023-11-14T14:40:52.105Z,10.50
2023-11-14T14:43:24.975Z,11.60
2023-11-14T14:45:56.363Z,14.70
2023-11-14T14:48:27.286Z,14.40
2023-11-14T14:50:57.809Z,10.23
2023-11-14T14:53:28.917Z,12.55
2023-11-14T14:56:03.981Z,11.73
2023-11-14T14:58:34.298Z,15.73
2023-11-14T15:01:05.454Z,16.98
2023-11-14T15:03:35.964Z,11.77
2023-11-14T15:06:06.855Z,15.70
2023-11-14T15:08:37.745Z,13.93
2023-11-14T15:11:10.923Z,13.60
2023-11-14T15:13:41.676Z,14.27
2023-11-14T15:16:13.931Z,14.20
2023-11-14T15:18:44.516Z,20.48
2023-11-14T15:21:14.976Z,22.30
2023-11-14T15:23:45.352Z,30.77
2023-11-14T15:26:18.563Z,18.08
2023-11-14T15:28:48.884Z,16.25
2023-11-14T15:31:21.341Z,21.38
2023-11-14T15:33:53.762Z,15.10
2023-11-14T15:36:25.007Z,21.27
2023-11-14T15:38:55.345Z,18.52
2023-11-14T15:41:28.714Z,14.40
2023-11-14T15:44:01.684Z,15.93
2023-11-14T15:46:33.290Z,23.30
2023-11-14T15:49:03.619Z,15.80
2023-11-14T15:51:33.915Z,16.20
2023-11-14T15:54:05.870Z,17.45
2023-11-14T15:56:38.822Z,14.60
2023-11-14T15:59:09.203Z,14.65
2023-11-14T16:01:39.863Z,10.27
2023-11-14T16:04:10.583Z,12.00
2023-11-14T16:06:41.063Z,20.73
2023-11-14T16:09:12.077Z,33.30
2023-11-14T16:11:45.174Z,24.50
2023-11-14T16:14:15.630Z,18.70
2023-11-14T16:16:46.079Z,23.38
2023-11-14T16:19:17.118Z,17.58
2023-11-14T16:21:48.563Z,18.70
2023-11-14T16:24:18.866Z,13.80
2023-11-14T16:26:51.760Z,18.33
2023-11-14T16:29:22.314Z,16.85
2023-11-14T16:31:53.207Z,9.93
2023-11-14T16:34:23.525Z,17.58
2023-11-14T16:36:53.943Z,13.38
2023-11-14T16:39:24.370Z,16.88
2023-11-14T16:41:57.698Z,12.80
2023-11-14T16:44:28.451Z,17.30
2023-11-14T16:46:58.766Z,19.85
2023-11-14T16:49:29.156Z,12.35
2023-11-14T16:51:59.507Z,20.13
2023-11-14T16:54:30.029Z,20.80
2023-11-14T16:57:04.231Z,17.20
2023-11-14T16:59:34.697Z,9.57
2023-11-14T17:02:07.571Z,10.93
2023-11-14T17:04:39.801Z,14.05
2023-11-14T17:07:10.676Z,15.25
2023-11-14T17:09:41.268Z,13.18
2023-11-14T17:12:14.403Z,16.00
2023-11-14T17:14:44.883Z,18.92
2023-11-14T17:17:15.565Z,14.82
2023-11-14T17:19:46.527Z,17.05
2023-11-14T17:22:17.007Z,13.57
2023-11-14T17:24:47.388Z,14.90
2023-11-14T17:27:24.475Z,14.23
2023-11-14T17:29:54.715Z,13.63
2023-11-14T17:32:27.659Z,20.23
2023-11-14T17:35:00.364Z,14.18
2023-11-14T17:37:31.571Z,15.02
2023-11-14T17:40:01.802Z,15.25
2023-11-14T17:42:37.275Z,19.30
2023-11-14T17:45:08.310Z,21.15
2023-11-14T17:47:38.749Z,19.30
2023-11-14T17:50:10.860Z,15.68
2023-11-14T17:52:41.339Z,17.85
2023-11-14T17:55:13.999Z,17.55
2023-11-14T17:57:47.128Z,18.27
2023-11-14T18:00:18.720Z,19.95
2023-11-14T18:02:50.013Z,16.85
2023-11-14T18:05:20.889Z,15.10
2023-11-14T18:07:54.302Z,17.85
2023-11-14T18:10:24.732Z,22.25
2023-11-14T18:12:57.705Z,17.33
2023-11-14T18:15:28.155Z,17.70
2023-11-14T18:17:59.850Z,16.10
2023-11-14T18:20:30.274Z,22.90
2023-11-14T18:23:00.696Z,21.70
2023-11-14T18:25:33.135Z,17.58
2023-11-14T18:28:06.719Z,22.23
2023-11-14T18:30:38.577Z,15.00
2023-11-14T18:33:09.387Z,14.80
2023-11-14T18:35:40.409Z,20.27
2023-11-14T18:38:11.392Z,16.20
2023-11-14T18:40:44.756Z,14.70
2023-11-14T18:43:18.977Z,17.05
2023-11-14T18:45:49.682Z,22.77
2023-11-14T18:48:20.341Z,20.23
2023-11-14T18:50:52.143Z,14.70
2023-11-14T18:53:22.665Z,29.60
2023-11-14T18:55:53.092Z,22.67
2023-11-14T18:58:26.581Z,32.53
2023-11-14T19:01:02.138Z,40.35
2023-11-14T19:03:36.985Z,27.02
2023-11-14T19:06:09.654Z,22.63
2023-11-14T19:08:40.291Z,30.10
2023-11-14T19:11:10.747Z,20.10
2023-11-14T19:13:48.631Z,27.30
2023-11-14T19:16:21.495Z,28.25
2023-11-14T19:18:51.824Z,20.90
2023-11-14T19:21:43.646Z,22.23
2023-11-14T19:24:12.550Z,19.00
2023-11-14T19:26:46.422Z,19.27
2023-11-14T19:29:20.022Z,20.02
2023-11-14T19:31:53.586Z,24.67
2023-11-14T19:34:26.377Z,21.40
2023-11-14T19:36:56.746Z,23.92
2023-11-14T19:39:27.066Z,21.60
2023-11-14T19:42:00.089Z,26.98
2023-11-14T19:44:40.309Z,25.63
2023-11-14T19:47:12.937Z,24.75
2023-11-14T19:49:46.199Z,28.02
2023-11-14T19:52:18.931Z,24.48
2023-11-14T19:54:49.457Z,24.38
2023-11-14T19:57:21.335Z,28.58
2023-11-14T19:59:57.017Z,24.13
2023-11-14T20:02:27.451Z,34.20
2023-11-14T20:04:58.028Z,34.60
2023-11-14T20:07:28.651Z,31.92
2023-11-14T20:09:59.101Z,25.17
2023-11-14T20:12:29.514Z,17.98
2023-11-14T20:15:02.846Z,19.98
2023-11-14T20:17:33.338Z,16.75
2023-11-14T20:20:01.313Z,22.02
2023-11-14T20:22:33.078Z,21.35
2023-11-14T20:25:03.560Z,26.48
2023-11-14T20:27:38.016Z,24.27
2023-11-14T20:30:12.054Z,26.33
2023-11-14T20:32:44.901Z,26.30
2023-11-14T20:35:15.287Z,24.08
2023-11-14T20:37:48.718Z,21.63
2023-11-14T20:40:21.195Z,20.92
2023-11-14T20:42:55.509Z,18.70
2023-11-14T20:45:28.574Z,25.83
2023-11-14T20:47:59.118Z,28.30
2023-11-14T20:50:31.148Z,30.83
2023-11-14T20:53:01.710Z,21.73
2023-11-14T20:55:32.134Z,24.77
2023-11-14T20:58:02.481Z,38.42
2023-11-14T21:00:35.576Z,27.90
2023-11-14T21:03:06.213Z,27.63
2023-11-14T21:05:36.612Z,24.13
2023-11-14T21:08:07.073Z,24.40
2023-11-14T21:10:39.144Z,24.77
2023-11-14T21:13:09.985Z,26.90
2023-11-14T21:15:43.197Z,34.33
2023-11-14T21:18:14.361Z,29.27
2023-11-14T21:20:45.810Z,30.73
2023-11-14T21:23:16.152Z,26.05
2023-11-14T21:25:46.549Z,37.15
2023-11-14T21:28:17.110Z,28.70
2023-11-14T21:30:54.169Z,22.88
2023-11-14T21:33:29.076Z,30.83
2023-11-14T21:35:59.495Z,29.05
2023-11-14T21:38:29.835Z,24.73
2023-11-14T21:41:00.283Z,28.13
2023-11-14T21:43:31.382Z,28.00
2023-11-14T21:46:04.308Z,23.00
2023-11-14T21:48:35.300Z,32.67
2023-11-14T21:51:05.973Z,24.10
2023-11-14T21:53:36.426Z,30.55
2023-11-14T21:56:08.842Z,23.48
2023-11-14T21:58:39.383Z,23.83
2023-11-14T22:01:12.802Z,31.92
2023-11-14T22:03:43.196Z,27.05
2023-11-14T22:06:14.205Z,31.73
2023-11-14T22:08:44.573Z,34.10
2023-11-14T22:11:15.647Z,31.58
2023-11-14T22:13:46.018Z,35.65
2023-11-14T22:16:19.356Z,47.92
2023-11-14T22:18:50.313Z,35.50
2023-11-14T22:21:20.677Z,33.75
2023-11-14T22:23:51.090Z,29.77
2023-11-14T22:26:21.521Z,26.77
2023-11-14T22:28:54.927Z,28.58
2023-11-14T22:31:29.042Z,33.83
2023-11-14T22:33:59.532Z,29.13
2023-11-14T22:36:29.958Z,33.35
2023-11-14T22:39:00.273Z,33.22
2023-11-14T22:41:30.587Z,34.33
2023-11-14T22:44:00.921Z,27.13
2023-11-14T22:46:34.006Z,34.80
2023-11-14T22:49:04.398Z,24.42
2023-11-14T22:51:34.890Z,27.77
2023-11-14T22:54:05.289Z,32.15
2023-11-14T22:56:33.583Z,33.90
2023-11-14T22:59:03.866Z,34.70
2023-11-14T23:01:41.137Z,36.03
2023-11-14T23:04:12.290Z,35.55
2023-11-14T23:06:43.040Z,39.90
2023-11-14T23:09:16.447Z,35.13
2023-11-14T23:11:48.443Z,39.35
2023-11-14T23:14:19.075Z,39.65
2023-11-14T23:16:52.522Z,28.48
2023-11-14T23:19:22.978Z,22.58
2023-11-14T23:21:57.878Z,39.20
2023-11-14T23:27:01.268Z,45.20
2023-11-14T23:29:31.634Z,44.70
2023-11-14T23:32:05.626Z,25.23
2023-11-14T23:34:35.896Z,27.75
2023-11-14T23:37:06.469Z,39.38
2023-11-14T23:39:38.417Z,33.47
2023-11-14T23:42:09.310Z,28.58
2023-11-14T23:44:39.777Z,29.90
2023-11-14T23:47:13.091Z,30.08
2023-11-14T23:49:43.361Z,29.27
2023-11-14T23:52:13.887Z,29.50
2023-11-14T23:54:44.882Z,29.90
2023-11-14T23:57:15.334Z,37.53
2023-11-14T23:59:46.090Z,33.10
